createdAt,value
2022-12-14T00:04:06.105Z,101682.72
2022-12-14T00:09:11.494Z,101684.53
2022-12-14T00:14:15.114Z,101695.84
2022-12-14T00:19:18.703Z,101704.56
2022-12-14T00:24:23.958Z,101701.16
2022-12-14T00:29:27.590Z,101707.28
2022-12-14T00:34:31.168Z,101710.81
2022-12-14T00:39:36.377Z,101716.06
2022-12-14T00:44:40.007Z,101724.81
2022-12-14T00:49:46.018Z,101734.41
2022-12-14T00:54:53.272Z,101736.13
2022-12-14T00:59:56.898Z,101743.09
2022-12-14T01:05:00.488Z,101741.38
2022-12-14T01:10:06.380Z,101744.00
2022-12-14T01:15:10.944Z,101739.66
2022-12-14T01:20:14.677Z,101753.53
2022-12-14T01:25:20.079Z,101759.59
2022-12-14T01:30:23.674Z,101758.75
2022-12-14T01:35:27.331Z,101756.16
2022-12-14T01:40:32.834Z,101763.06
2022-12-14T01:45:36.440Z,101773.47
2022-12-14T01:50:44.821Z,101784.75
2022-12-14T01:55:54.924Z,101783.88
2022-12-14T02:01:02.294Z,101789.97
2022-12-14T02:06:09.157Z,101797.72
2022-12-14T02:11:14.524Z,101786.41
2022-12-14T02:16:18.244Z,101796.78
2022-12-14T02:21:25.900Z,101801.03
2022-12-14T02:26:57.981Z,101808.81
2022-12-14T02:32:12.749Z,101820.91
2022-12-14T02:37:25.448Z,101833.00
2022-12-14T02:42:40.276Z,101831.16
2022-12-14T02:47:52.948Z,101845.06
2022-12-14T02:53:04.294Z,101847.03
2022-12-14T02:58:13.056Z,101847.78
2022-12-14T03:03:18.300Z,101850.97
2022-12-14T03:08:23.035Z,101848.97
2022-12-14T03:13:31.970Z,101856.22
2022-12-14T03:18:42.378Z,101863.16
2022-12-14T03:23:47.568Z,101874.78
2022-12-14T03:28:54.726Z,101861.84
2022-12-14T03:34:02.682Z,101865.78
2022-12-14T03:39:10.800Z,101864.78
2022-12-14T03:44:25.253Z,101871.53
2022-12-14T03:49:44.139Z,101861.84
2022-12-14T03:54:55.417Z,101863.72
2022-12-14T04:00:05.005Z,101874.16
2022-12-14T04:05:15.737Z,101867.00
2022-12-14T04:10:24.854Z,101867.03
2022-12-14T04:15:32.237Z,101866.16
2022-12-14T04:20:43.458Z,101861.75
2022-12-14T04:25:49.048Z,101866.94
2022-12-14T04:30:52.785Z,101867.69
2022-12-14T04:36:02.953Z,101867.75
2022-12-14T04:41:10.801Z,101877.22
2022-12-14T04:46:18.009Z,101869.31
2022-12-14T04:51:29.480Z,101874.75
2022-12-14T04:56:37.724Z,101883.53
2022-12-14T05:01:52.603Z,101900.22
2022-12-14T05:07:08.385Z,101911.69
2022-12-14T05:12:18.020Z,101913.09
2022-12-14T05:17:21.916Z,101916.22
2022-12-14T05:22:27.237Z,101924.66
2022-12-14T05:27:30.843Z,101925.31
2022-12-14T05:32:34.684Z,101924.22
2022-12-14T05:37:39.918Z,101928.59
2022-12-14T05:42:46.030Z,101942.34
2022-12-14T05:47:52.264Z,101951.69
2022-12-14T05:52:57.483Z,101954.16
2022-12-14T05:58:01.076Z,101970.53
2022-12-14T06:03:04.802Z,101949.53
2022-12-14T06:08:10.092Z,101952.84
2022-12-14T06:13:13.707Z,101954.44
2022-12-14T06:18:17.316Z,101956.19
2022-12-14T06:23:22.602Z,101960.44
2022-12-14T06:28:26.195Z,101962.00
2022-12-14T06:33:30.451Z,101962.94
2022-12-14T06:38:36.500Z,101980.13
2022-12-14T06:43:40.270Z,101983.50
2022-12-14T06:48:44.349Z,101998.06
2022-12-14T06:53:51.835Z,102010.13
2022-12-14T06:58:55.714Z,102018.53
2022-12-14T07:04:00.036Z,102016.66
2022-12-14T07:09:07.193Z,102022.63
2022-12-14T07:14:15.307Z,102021.72
2022-12-14T07:19:19.231Z,102029.47
2022-12-14T07:24:24.483Z,102030.31
2022-12-14T07:29:34.107Z,102029.03
2022-12-14T07:34:39.022Z,102026.50
2022-12-14T07:39:44.310Z,102022.03
2022-12-14T07:44:47.908Z,102017.84
2022-12-14T07:49:51.547Z,102020.09
2022-12-14T07:54:56.820Z,102015.91
2022-12-14T08:00:00.433Z,102018.28
2022-12-14T08:05:07.902Z,102009.53
2022-12-14T08:10:17.584Z,102024.97
2022-12-14T08:15:21.227Z,102016.28
2022-12-14T08:20:24.934Z,102017.28
2022-12-14T08:25:30.207Z,102016.22
2022-12-14T08:30:33.820Z,102028.09
2022-12-14T08:35:37.449Z,102017.63
2022-12-14T08:40:43.013Z,102024.56
2022-12-14T08:45:46.597Z,102026.22
2022-12-14T08:50:50.293Z,102033.94
2022-12-14T08:55:55.599Z,102041.66
2022-12-14T09:01:03.265Z,102046.66
2022-12-14T09:06:08.703Z,102043.38
2022-12-14T09:11:15.963Z,102046.47
2022-12-14T09:16:20.616Z,102052.53
2022-12-14T09:21:24.604Z,102045.53
2022-12-14T09:26:30.001Z,102054.91
2022-12-14T09:31:33.841Z,102049.50
2022-12-14T09:36:38.731Z,102055.78
2022-12-14T09:41:59.260Z,102060.13
2022-12-14T09:47:11.788Z,102064.34
2022-12-14T09:52:18.812Z,102070.81
2022-12-14T09:57:29.495Z,102063.75
2022-12-14T10:02:44.098Z,102062.97
2022-12-14T10:07:58.862Z,102061.94
2022-12-14T10:13:12.952Z,102070.41
2022-12-14T10:19:03.246Z,102069.47
2022-12-14T10:24:12.968Z,102069.47
2022-12-14T10:29:25.439Z,102065.88
2022-12-14T10:34:31.345Z,102061.53
2022-12-14T10:39:49.552Z,102061.34
2022-12-14T10:45:31.690Z,102066.53
2022-12-14T10:50:42.190Z,102063.94
2022-12-14T10:55:47.408Z,102076.03
2022-12-14T11:00:55.964Z,102067.88
2022-12-14T11:06:05.211Z,102073.03
2022-12-14T11:11:16.982Z,102063.69
2022-12-14T11:16:36.314Z,102060.91
2022-12-14T11:21:40.688Z,102059.16
2022-12-14T11:26:44.790Z,102055.31
2022-12-14T11:31:51.679Z,102046.84
2022-12-14T11:36:55.474Z,102040.91
2022-12-14T11:42:03.850Z,102037.47
2022-12-14T11:47:14.016Z,102033.16
2022-12-14T11:52:19.483Z,102016.94
2022-12-14T11:57:28.074Z,102025.34
2022-12-14T12:02:37.913Z,102017.59
2022-12-14T12:07:53.476Z,102021.88
2022-12-14T12:12:58.866Z,102025.22
2022-12-14T12:18:06.547Z,102027.63
2022-12-14T12:23:16.371Z,102039.41
2022-12-14T12:28:25.302Z,102041.94
2022-12-14T12:33:37.992Z,102031.88
2022-12-14T12:38:58.268Z,102045.50
2022-12-14T12:44:13.411Z,102049.63
2022-12-14T12:49:18.880Z,102051.16
2022-12-14T12:54:29.577Z,102041.00
2022-12-14T12:59:38.713Z,102051.22
2022-12-14T13:04:52.311Z,102046.22
2022-12-14T13:10:05.515Z,102049.94
2022-12-14T13:15:20.195Z,102049.06
2022-12-14T13:20:28.115Z,102039.91
2022-12-14T13:25:42.524Z,102037.69
2022-12-14T13:31:00.015Z,102038.56
2022-12-14T13:36:41.543Z,102048.19
2022-12-14T13:41:54.114Z,102050.59
2022-12-14T13:47:03.014Z,102055.81
2022-12-14T13:52:08.276Z,102061.97
2022-12-14T13:57:14.705Z,102055.81
2022-12-14T14:02:39.710Z,102056.81
2022-12-14T14:07:54.111Z,102071.69
2022-12-14T14:12:57.733Z,102084.84
2022-12-14T14:18:17.525Z,102085.06
2022-12-14T14:23:37.351Z,102087.66
2022-12-14T14:28:41.259Z,102098.38
2022-12-14T14:33:48.958Z,102102.69
2022-12-14T14:38:56.113Z,102121.56
2022-12-14T14:44:03.894Z,102118.94
2022-12-14T14:49:20.460Z,102118.03
2022-12-14T14:55:16.244Z,102122.66
2022-12-14T15:00:02.679Z,102122.69
2022-12-14T15:10:35.610Z,102118.59
2022-12-14T15:15:43.205Z,102116.63
2022-12-14T15:20:55.494Z,102118.34
2022-12-14T15:26:02.515Z,102132.06
2022-12-14T15:31:06.521Z,102121.47
2022-12-14T15:36:15.963Z,102128.44
2022-12-14T15:41:23.508Z,102136.91
2022-12-14T15:46:28.702Z,102148.44
2022-12-14T15:51:34.540Z,102150.13
2022-12-14T15:56:43.469Z,102144.56
2022-12-14T16:01:54.306Z,102146.84
2022-12-14T16:07:08.508Z,102146.97
2022-12-14T16:12:24.636Z,102150.88
2022-12-14T16:17:31.872Z,102166.66
2022-12-14T16:22:39.017Z,102169.50
2022-12-14T16:27:46.122Z,102180.47
2022-12-14T16:33:04.283Z,102176.63
2022-12-14T16:38:09.885Z,102179.41
2022-12-14T16:43:30.970Z,102185.09
2022-12-14T16:48:36.345Z,102192.63
2022-12-14T16:53:48.847Z,102196.31
2022-12-14T16:59:02.673Z,102206.19
2022-12-14T17:04:08.907Z,102210.44
2022-12-14T17:09:20.304Z,102206.91
2022-12-14T17:14:26.052Z,102216.00
2022-12-14T17:19:33.431Z,102221.59
2022-12-14T17:24:38.143Z,102226.19
2022-12-14T17:29:44.549Z,102220.41
2022-12-14T17:34:48.368Z,102232.06
2022-12-14T17:39:52.353Z,102238.47
2022-12-14T17:44:59.684Z,102251.03
2022-12-14T17:50:03.301Z,102248.81
2022-12-14T17:55:07.451Z,102262.09
2022-12-14T18:00:17.414Z,102253.59
2022-12-14T18:05:22.605Z,102255.44
2022-12-14T18:10:26.443Z,102255.53
2022-12-14T18:15:36.316Z,102246.22
2022-12-14T18:20:42.184Z,102248.94
2022-12-14T18:25:48.068Z,102242.91
2022-12-14T18:30:59.444Z,102247.25
2022-12-14T18:36:03.958Z,102232.50
2022-12-14T18:41:16.774Z,102230.75
2022-12-14T18:46:22.978Z,102224.72
2022-12-14T18:51:27.375Z,102208.19
2022-12-14T18:56:32.766Z,102216.00
2022-12-14T19:01:40.182Z,102211.66
2022-12-14T19:06:45.476Z,102202.09
2022-12-14T19:11:54.289Z,102204.69
2022-12-14T19:17:01.500Z,102195.13
2022-12-14T19:22:08.576Z,102189.03
2022-12-14T19:27:13.965Z,102175.94
2022-12-14T19:32:22.693Z,102162.88
2022-12-14T19:37:27.486Z,102155.03
2022-12-14T19:42:33.392Z,102148.94
2022-12-14T19:47:40.707Z,102141.13
2022-12-14T19:52:45.801Z,102134.97
2022-12-14T19:57:50.379Z,102136.63
2022-12-14T20:02:55.983Z,102110.44
2022-12-14T20:07:59.694Z,102100.84
2022-12-14T20:14:07.378Z,102099.09
2022-12-14T20:19:14.462Z,102100.72
2022-12-14T20:24:17.312Z,102095.56
2022-12-14T20:29:20.986Z,102094.66
2022-12-14T20:34:26.273Z,102086.75
2022-12-14T20:39:29.873Z,102085.84
2022-12-14T20:44:33.818Z,102077.03
2022-12-14T20:49:39.220Z,102065.72
2022-12-14T20:54:42.799Z,102056.94
2022-12-14T20:59:46.413Z,102053.47
2022-12-14T21:04:51.848Z,102045.63
2022-12-14T21:09:55.454Z,102038.53
2022-12-14T21:14:59.161Z,102032.41
2022-12-14T21:20:04.676Z,102030.59
2022-12-14T21:25:08.886Z,102013.19
2022-12-14T21:30:13.392Z,102008.75
2022-12-14T21:35:19.557Z,102012.28
2022-12-14T21:40:23.083Z,102011.53
2022-12-14T21:45:26.790Z,102012.41
2022-12-14T21:50:32.103Z,102014.09
2022-12-14T21:55:38.275Z,102012.28
2022-12-14T22:00:41.080Z,102013.13
2022-12-14T22:05:46.329Z,102006.22
2022-12-14T22:10:49.944Z,102003.53
2022-12-14T22:15:53.545Z,102007.75
2022-12-14T22:21:08.879Z,102012.88
2022-12-14T22:26:12.475Z,102009.22
2022-12-14T22:31:16.192Z,102003.31
2022-12-14T22:36:22.139Z,101992.97
2022-12-14T22:41:26.685Z,101994.56
2022-12-14T22:46:51.954Z,101999.00
2022-12-14T22:51:57.223Z,101991.28
2022-12-14T22:57:03.597Z,101993.09
2022-12-14T23:02:07.401Z,101980.94
2022-12-14T23:07:27.280Z,101985.28
2022-12-14T23:12:31.215Z,102002.03
2022-12-14T23:17:35.076Z,102012.56
2022-12-14T23:22:40.388Z,102014.38
2022-12-14T23:27:44.027Z,102008.22
2022-12-14T23:32:47.647Z,102013.53
2022-12-14T23:37:52.898Z,102015.41
2022-12-14T23:42:56.537Z,102023.28
2022-12-14T23:48:00.171Z,102029.38
2022-12-14T23:53:08.049Z,102032.19
2022-12-14T23:58:11.707Z,102036.66
